sensor_id;sensor_type;location;lat;lon;timestamp;pressure;altitude;pressure_sealevel;temperature;humidity
12358;BME280;6243;51.244;6.774;2023-03-01T00:00:49;148692.69;;;4.88;64.10
12358;BME280;6243;51.244;6.774;2023-03-01T00:03:14;148664.84;;;4.77;65.30
12358;BME280;6243;51.244;6.774;2023-03-01T00:05:44;148634.53;;;4.65;65.00
12358;BME280;6243;51.244;6.774;2023-03-01T00:08:09;148648.41;;;4.70;65.23
12358;BME280;6243;51.244;6.774;2023-03-01T00:10:35;148539.69;;;4.27;65.98
12358;BME280;6243;51.244;6.774;2023-03-01T00:13:02;148456.28;;;3.94;67.06
12358;BME280;6243;51.244;6.774;2023-03-01T00:15:27;148557.38;;;4.34;67.31
12358;BME280;6243;51.244;6.774;2023-03-01T00:17:52;148581.41;;;4.44;66.85
12358;BME280;6243;51.244;6.774;2023-03-01T00:20:18;148471.44;;;4.00;67.61
12358;BME280;6243;51.244;6.774;2023-03-01T00:22:43;148432.28;;;3.84;68.93
12358;BME280;6243;51.244;6.774;2023-03-01T00:25:09;148375.41;;;3.62;70.42
12358;BME280;6243;51.244;6.774;2023-03-01T00:27:34;148379.19;;;3.63;70.55
12358;BME280;6243;51.244;6.774;2023-03-01T00:30:01;148389.34;;;3.67;70.67
12358;BME280;6243;51.244;6.774;2023-03-01T00:32:27;148434.81;;;3.85;69.82
12358;BME280;6243;51.244;6.774;2023-03-01T00:34:52;148438.59;;;3.87;69.78
12358;BME280;6243;51.244;6.774;2023-03-01T00:37:18;148479.03;;;4.03;69.09
12358;BME280;6243;51.244;6.774;2023-03-01T00:39:43;148548.56;;;4.30;68.41
12358;BME280;6243;51.244;6.774;2023-03-01T00:42:09;148505.56;;;4.13;68.76
12358;BME280;6243;51.244;6.774;2023-03-01T00:44:34;148467.66;;;3.98;69.33
12358;BME280;6243;51.244;6.774;2023-03-01T00:47:01;148499.22;;;4.11;69.18
12358;BME280;6243;51.244;6.774;2023-03-01T00:49:27;148543.50;;;4.28;69.12
12358;BME280;6243;51.244;6.774;2023-03-01T00:51:53;148570.03;;;4.39;68.45
12358;BME280;6243;51.244;6.774;2023-03-01T00:54:18;148564.97;;;4.37;68.36
12358;BME280;6243;51.244;6.774;2023-03-01T00:56:44;148587.75;;;4.46;68.18
12358;BME280;6243;51.244;6.774;2023-03-01T00:59:09;148600.38;;;4.51;68.20
12358;BME280;6243;51.244;6.774;2023-03-01T01:01:35;148594.06;;;4.49;67.72
12358;BME280;6243;51.244;6.774;2023-03-01T01:04:04;148585.19;;;4.45;68.21
12358;BME280;6243;51.244;6.774;2023-03-01T01:06:31;148564.97;;;4.37;68.54
12358;BME280;6243;51.244;6.774;2023-03-01T01:08:58;148505.56;;;4.13;69.49
12358;BME280;6243;51.244;6.774;2023-03-01T01:11:25;148534.63;;;4.25;68.94
12358;BME280;6243;51.244;6.774;2023-03-01T01:13:51;148524.53;;;4.21;69.24
12358;BME280;6243;51.244;6.774;2023-03-01T01:16:18;148524.53;;;4.21;69.32
12358;BME280;6243;51.244;6.774;2023-03-01T01:18:44;148434.81;;;3.85;70.53
12358;BME280;6243;51.244;6.774;2023-03-01T01:21:13;148504.34;;;4.13;69.57
12358;BME280;6243;51.244;6.774;2023-03-01T01:23:40;148504.34;;;4.13;69.38
12358;BME280;6243;51.244;6.774;2023-03-01T01:26:07;148527.09;;;4.22;69.02
12358;BME280;6243;51.244;6.774;2023-03-01T01:28:33;148562.44;;;4.36;68.78
12358;BME280;6243;51.244;6.774;2023-03-01T01:30:59;148564.97;;;4.37;68.71
12358;BME280;6243;51.244;6.774;2023-03-01T01:33:24;148535.91;;;4.25;68.95
12358;BME280;6243;51.244;6.774;2023-03-01T01:35:50;148533.34;;;4.24;69.74
12358;BME280;6243;51.244;6.774;2023-03-01T01:38:16;148499.22;;;4.11;69.86
12358;BME280;6243;51.244;6.774;2023-03-01T01:40:45;148489.13;;;4.07;70.01
12358;BME280;6243;51.244;6.774;2023-03-01T01:43:18;148466.38;;;3.98;70.56
12358;BME280;6243;51.244;6.774;2023-03-01T01:45:45;148448.69;;;3.91;70.94
12358;BME280;6243;51.244;6.774;2023-03-01T01:48:13;148446.19;;;3.90;71.52
12358;BME280;6243;51.244;6.774;2023-03-01T01:50:40;148443.66;;;3.89;71.95
12358;BME280;6243;51.244;6.774;2023-03-01T01:53:09;148446.19;;;3.90;72.46
12358;BME280;6243;51.244;6.774;2023-03-01T01:55:41;148436.03;;;3.86;72.56
12358;BME280;6243;51.244;6.774;2023-03-01T01:58:09;148456.28;;;3.94;72.46
12358;BME280;6243;51.244;6.774;2023-03-01T02:00:36;148444.91;;;3.89;71.95
12358;BME280;6243;51.244;6.774;2023-03-01T02:03:06;148437.31;;;3.86;72.06
12358;BME280;6243;51.244;6.774;2023-03-01T02:05:38;148407.03;;;3.74;72.25
12358;BME280;6243;51.244;6.774;2023-03-01T02:08:05;148372.88;;;3.60;72.43
12358;BME280;6243;51.244;6.774;2023-03-01T02:10:32;148328.69;;;3.43;72.52
12358;BME280;6243;51.244;6.774;2023-03-01T02:13:00;148332.50;;;3.44;73.21
12358;BME280;6243;51.244;6.774;2023-03-01T02:15:26;148394.38;;;3.69;73.12
12358;BME280;6243;51.244;6.774;2023-03-01T02:17:52;148418.41;;;3.79;72.62
12358;BME280;6243;51.244;6.774;2023-03-01T02:20:23;148414.56;;;3.77;72.99
12358;BME280;6243;51.244;6.774;2023-03-01T02:22:52;148418.41;;;3.79;72.63
12358;BME280;6243;51.244;6.774;2023-03-01T02:25:34;148407.03;;;3.74;72.66
12358;BME280;6243;51.244;6.774;2023-03-01T02:28:05;148400.72;;;3.72;72.84
12358;BME280;6243;51.244;6.774;2023-03-01T02:30:34;148327.41;;;3.42;74.25
12358;BME280;6243;51.244;6.774;2023-03-01T02:33:02;148367.81;;;3.58;73.60
12358;BME280;6243;51.244;6.774;2023-03-01T02:35:29;148400.72;;;3.72;73.00
12358;BME280;6243;51.244;6.774;2023-03-01T02:37:56;148321.13;;;3.40;73.30
12358;BME280;6243;51.244;6.774;2023-03-01T02:40:21;148292.06;;;3.28;73.99
12358;BME280;6243;51.244;6.774;2023-03-01T02:42:50;148203.66;;;2.93;75.96
12358;BME280;6243;51.244;6.774;2023-03-01T02:45:17;148132.97;;;2.65;78.80
12358;BME280;6243;51.244;6.774;2023-03-01T02:47:44;148116.56;;;2.58;80.02
12358;BME280;6243;51.244;6.774;2023-03-01T02:50:21;148188.53;;;2.87;77.55
12358;BME280;6243;51.244;6.774;2023-03-01T02:52:54;148294.56;;;3.29;77.07
12358;BME280;6243;51.244;6.774;2023-03-01T02:55:21;148322.34;;;3.40;76.08
12358;BME280;6243;51.244;6.774;2023-03-01T02:57:48;148347.63;;;3.50;75.61
12358;BME280;6243;51.244;6.774;2023-03-01T03:00:17;148360.28;;;3.55;74.81
12358;BME280;6243;51.244;6.774;2023-03-01T03:02:45;148355.22;;;3.53;75.14
12358;BME280;6243;51.244;6.774;2023-03-01T03:05:12;148350.13;;;3.51;75.19
12358;BME280;6243;51.244;6.774;2023-03-01T03:07:40;148348.91;;;3.51;74.86
12358;BME280;6243;51.244;6.774;2023-03-01T03:10:08;148260.47;;;3.16;74.91
12358;BME280;6243;51.244;6.774;2023-03-01T03:12:34;148312.25;;;3.36;74.70
12358;BME280;6243;51.244;6.774;2023-03-01T03:14:59;148345.09;;;3.49;74.51
12358;BME280;6243;51.244;6.774;2023-03-01T03:17:25;148324.91;;;3.41;74.76
12358;BME280;6243;51.244;6.774;2023-03-01T03:19:52;148297.13;;;3.30;74.80
12358;BME280;6243;51.244;6.774;2023-03-01T03:22:17;148328.69;;;3.43;75.22
12358;BME280;6243;51.244;6.774;2023-03-01T03:24:43;148310.97;;;3.36;74.40
12358;BME280;6243;51.244;6.774;2023-03-01T03:27:08;148326.19;;;3.42;74.42
12358;BME280;6243;51.244;6.774;2023-03-01T03:29:34;148274.41;;;3.21;75.50
12358;BME280;6243;51.244;6.774;2023-03-01T03:31:59;148278.16;;;3.23;75.40
12358;BME280;6243;51.244;6.774;2023-03-01T03:34:25;148193.56;;;2.89;77.31
12358;BME280;6243;51.244;6.774;2023-03-01T03:36:54;148183.50;;;2.85;77.84
12358;BME280;6243;51.244;6.774;2023-03-01T03:39:20;148165.81;;;2.78;78.37
12358;BME280;6243;51.244;6.774;2023-03-01T03:41:45;148274.41;;;3.21;76.93
12358;BME280;6243;51.244;6.774;2023-03-01T03:44:11;148212.53;;;2.97;76.63
12358;BME280;6243;51.244;6.774;2023-03-01T03:46:36;148134.22;;;2.65;80.42
12358;BME280;6243;51.244;6.774;2023-03-01T03:49:02;148102.69;;;2.53;81.35
12358;BME280;6243;51.244;6.774;2023-03-01T03:51:27;148138.06;;;2.67;79.72
12358;BME280;6243;51.244;6.774;2023-03-01T03:53:54;148054.72;;;2.34;80.77
12358;BME280;6243;51.244;6.774;2023-03-01T03:56:20;148146.88;;;2.70;79.36
12358;BME280;6243;51.244;6.774;2023-03-01T03:58:45;148145.59;;;2.70;80.51
12358;BME280;6243;51.244;6.774;2023-03-01T04:01:11;148127.91;;;2.63;80.57
12358;BME280;6243;51.244;6.774;2023-03-01T04:03:36;148038.31;;;2.27;83.45
12358;BME280;6243;51.244;6.774;2023-03-01T04:06:02;148131.72;;;2.64;81.00
12358;BME280;6243;51.244;6.774;2023-03-01T04:08:28;148052.22;;;2.33;83.75
12358;BME280;6243;51.244;6.774;2023-03-01T04:11:00;148054.72;;;2.34;84.15
12358;BME280;6243;51.244;6.774;2023-03-01T04:13:25;147966.44;;;1.98;86.30
12358;BME280;6243;51.244;6.774;2023-03-01T04:15:51;147881.91;;;1.65;91.35
12358;BME280;6243;51.244;6.774;2023-03-01T04:18:18;147852.91;;;1.53;95.55
12358;BME280;6243;51.244;6.774;2023-03-01T04:20:45;147864.25;;;1.58;95.52
12358;BME280;6243;51.244;6.774;2023-03-01T04:23:12;147763.41;;;1.17;100.00
12358;BME280;6243;51.244;6.774;2023-03-01T04:25:39;147860.47;;;1.56;100.00
12358;BME280;6243;51.244;6.774;2023-03-01T04:28:06;147852.91;;;1.53;100.00
12358;BME280;6243;51.244;6.774;2023-03-01T04:30:32;147864.25;;;1.58;100.00
12358;BME280;6243;51.244;6.774;2023-03-01T04:32:57;147926.06;;;1.82;100.00
12358;BME280;6243;51.244;6.774;2023-03-01T04:35:22;147830.19;;;1.44;100.00
12358;BME280;6243;51.244;6.774;2023-03-01T04:37:49;147904.59;;;1.74;100.00
12358;BME280;6243;51.244;6.774;2023-03-01T04:40:14;147947.50;;;1.91;98.20
12358;BME280;6243;51.244;6.774;2023-03-01T04:42:40;147861.75;;;1.57;99.88
12358;BME280;6243;51.244;6.774;2023-03-01T04:45:08;147979.00;;;2.03;98.08
12358;BME280;6243;51.244;6.774;2023-03-01T04:47:33;148069.84;;;2.40;93.15
12358;BME280;6243;51.244;6.774;2023-03-01T04:49:59;147980.28;;;2.04;92.20
12358;BME280;6243;51.244;6.774;2023-03-01T04:52:24;148010.56;;;2.16;93.73
12358;BME280;6243;51.244;6.774;2023-03-01T04:54:50;148049.69;;;2.32;91.34
12358;BME280;6243;51.244;6.774;2023-03-01T04:57:15;148039.59;;;2.28;91.96
12358;BME280;6243;51.244;6.774;2023-03-01T04:59:41;148035.78;;;2.26;91.42
12358;BME280;6243;51.244;6.774;2023-03-01T05:02:08;148122.88;;;2.61;88.72
12358;BME280;6243;51.244;6.774;2023-03-01T05:04:33;148079.97;;;2.44;89.25
12358;BME280;6243;51.244;6.774;2023-03-01T05:06:59;147915.94;;;1.78;94.37
12358;BME280;6243;51.244;6.774;2023-03-01T05:09:24;148042.09;;;2.29;92.53
12358;BME280;6243;51.244;6.774;2023-03-01T05:11:50;148109.00;;;2.55;89.85
12358;BME280;6243;51.244;6.774;2023-03-01T05:14:15;148115.34;;;2.58;89.41
12358;BME280;6243;51.244;6.774;2023-03-01T05:16:41;148156.94;;;2.74;86.99
12358;BME280;6243;51.244;6.774;2023-03-01T05:19:08;148150.63;;;2.72;86.82
12358;BME280;6243;51.244;6.774;2023-03-01T05:21:33;148144.31;;;2.69;85.54
12358;BME280;6243;51.244;6.774;2023-03-01T05:23:59;148164.53;;;2.77;85.10
12358;BME280;6243;51.244;6.774;2023-03-01T05:26:24;148173.34;;;2.81;84.15
12358;BME280;6243;51.244;6.774;2023-03-01T05:28:50;148177.16;;;2.82;85.33
12358;BME280;6243;51.244;6.774;2023-03-01T05:31:15;148196.06;;;2.90;84.12
12358;BME280;6243;51.244;6.774;2023-03-01T05:33:41;148218.81;;;2.99;83.16
12358;BME280;6243;51.244;6.774;2023-03-01T05:36:09;148169.59;;;2.79;83.68
12358;BME280;6243;51.244;6.774;2023-03-01T05:38:35;148028.25;;;2.23;87.33
12358;BME280;6243;51.244;6.774;2023-03-01T05:41:01;148087.53;;;2.47;88.13
12358;BME280;6243;51.244;6.774;2023-03-01T05:43:30;148088.78;;;2.47;86.24
12358;BME280;6243;51.244;6.774;2023-03-01T05:45:57;148014.34;;;2.17;88.05
12358;BME280;6243;51.244;6.774;2023-03-01T05:48:23;148131.72;;;2.64;86.44
12358;BME280;6243;51.244;6.774;2023-03-01T05:50:48;148173.34;;;2.81;84.17
12358;BME280;6243;51.244;6.774;2023-03-01T05:53:17;148188.53;;;2.87;84.11
12358;BME280;6243;51.244;6.774;2023-03-01T05:55:44;148187.25;;;2.86;83.88
12358;BME280;6243;51.244;6.774;2023-03-01T05:58:11;148206.22;;;2.94;83.30
12358;BME280;6243;51.244;6.774;2023-03-01T06:00:37;148183.50;;;2.85;83.44
12358;BME280;6243;51.244;6.774;2023-03-01T06:03:03;148105.19;;;2.54;84.78
12358;BME280;6243;51.244;6.774;2023-03-01T06:05:29;148141.81;;;2.68;85.07
12358;BME280;6243;51.244;6.774;2023-03-01T06:07:55;148143.09;;;2.69;84.29
12358;BME280;6243;51.244;6.774;2023-03-01T06:10:22;148062.31;;;2.37;86.33
12358;BME280;6243;51.244;6.774;2023-03-01T06:12:48;148150.63;;;2.72;84.33
12358;BME280;6243;51.244;6.774;2023-03-01T06:15:15;148049.69;;;2.32;85.40
12358;BME280;6243;51.244;6.774;2023-03-01T06:17:43;148125.41;;;2.62;85.01
12358;BME280;6243;51.244;6.774;2023-03-01T06:20:10;148172.13;;;2.80;83.48
12358;BME280;6243;51.244;6.774;2023-03-01T06:22:36;148150.63;;;2.72;83.93
12358;BME280;6243;51.244;6.774;2023-03-01T06:25:02;148151.91;;;2.72;83.45
12358;BME280;6243;51.244;6.774;2023-03-01T06:27:29;148132.97;;;2.65;84.36
12358;BME280;6243;51.244;6.774;2023-03-01T06:29:55;148072.41;;;2.41;84.45
12358;BME280;6243;51.244;6.774;2023-03-01T06:32:20;147927.28;;;1.83;90.77
12358;BME280;6243;51.244;6.774;2023-03-01T06:34:46;147951.28;;;1.92;91.19
12358;BME280;6243;51.244;6.774;2023-03-01T06:37:11;148059.78;;;2.36;88.61
12358;BME280;6243;51.244;6.774;2023-03-01T06:39:37;148006.75;;;2.14;89.61
12358;BME280;6243;51.244;6.774;2023-03-01T06:42:03;147986.59;;;2.06;89.58
12358;BME280;6243;51.244;6.774;2023-03-01T06:44:30;148073.66;;;2.41;88.05
12358;BME280;6243;51.244;6.774;2023-03-01T06:46:55;148136.78;;;2.66;87.61
12358;BME280;6243;51.244;6.774;2023-03-01T06:49:21;148144.31;;;2.69;86.73
12358;BME280;6243;51.244;6.774;2023-03-01T06:51:47;148086.31;;;2.46;89.59
12358;BME280;6243;51.244;6.774;2023-03-01T06:54:13;148115.34;;;2.58;88.85
12358;BME280;6243;51.244;6.774;2023-03-01T06:56:38;148208.72;;;2.95;85.80
12358;BME280;6243;51.244;6.774;2023-03-01T06:59:04;148249.13;;;3.11;84.19
12358;BME280;6243;51.244;6.774;2023-03-01T07:01:31;148254.16;;;3.13;84.28
12358;BME280;6243;51.244;6.774;2023-03-01T07:03:57;148288.25;;;3.27;83.46
12358;BME280;6243;51.244;6.774;2023-03-01T07:06:22;148324.91;;;3.41;82.56
12358;BME280;6243;51.244;6.774;2023-03-01T07:08:48;148273.13;;;3.21;84.07
12358;BME280;6243;51.244;6.774;2023-03-01T07:11:14;148289.53;;;3.27;85.63
12358;BME280;6243;51.244;6.774;2023-03-01T07:13:39;148326.19;;;3.42;85.36
12358;BME280;6243;51.244;6.774;2023-03-01T07:16:06;148353.94;;;3.53;84.40
12358;BME280;6243;51.244;6.774;2023-03-01T07:18:33;148386.78;;;3.66;82.56
12358;BME280;6243;51.244;6.774;2023-03-01T07:21:04;148448.69;;;3.91;80.76
12358;BME280;6243;51.244;6.774;2023-03-01T07:23:29;148485.34;;;4.05;79.63
12358;BME280;6243;51.244;6.774;2023-03-01T07:25:55;148524.53;;;4.21;77.10
12358;BME280;6243;51.244;6.774;2023-03-01T07:28:22;148582.69;;;4.44;75.79
12358;BME280;6243;51.244;6.774;2023-03-01T07:30:47;148586.47;;;4.46;75.87
12358;BME280;6243;51.244;6.774;2023-03-01T07:33:13;148630.69;;;4.63;74.47
12358;BME280;6243;51.244;6.774;2023-03-01T07:35:40;148769.84;;;5.19;71.50
12358;BME280;6243;51.244;6.774;2023-03-01T07:38:06;148967.31;;;5.97;68.78
12358;BME280;6243;51.244;6.774;2023-03-01T07:40:31;149035.69;;;6.24;67.34
12358;BME280;6243;51.244;6.774;2023-03-01T07:42:57;148898.94;;;5.70;68.20
12358;BME280;6243;51.244;6.774;2023-03-01T07:45:22;148825.50;;;5.41;70.79
12358;BME280;6243;51.244;6.774;2023-03-01T07:47:49;148815.38;;;5.37;69.62
12358;BME280;6243;51.244;6.774;2023-03-01T07:50:15;148786.28;;;5.25;71.14
12358;BME280;6243;51.244;6.774;2023-03-01T07:52:44;148806.53;;;5.33;71.61
12358;BME280;6243;51.244;6.774;2023-03-01T07:55:10;148783.78;;;5.24;72.30
12358;BME280;6243;51.244;6.774;2023-03-01T07:57:35;148795.16;;;5.29;71.99
12358;BME280;6243;51.244;6.774;2023-03-01T08:00:01;148843.22;;;5.48;71.02
12358;BME280;6243;51.244;6.774;2023-03-01T08:02:26;148878.66;;;5.62;70.37
12358;BME280;6243;51.244;6.774;2023-03-01T08:04:52;148906.50;;;5.73;68.94
12358;BME280;6243;51.244;6.774;2023-03-01T08:07:17;148936.94;;;5.85;68.06
12358;BME280;6243;51.244;6.774;2023-03-01T08:09:44;148952.09;;;5.91;69.08
12358;BME280;6243;51.244;6.774;2023-03-01T08:12:10;148988.84;;;6.06;68.42
12358;BME280;6243;51.244;6.774;2023-03-01T08:14:35;149012.91;;;6.15;67.18
12358;BME280;6243;51.244;6.774;2023-03-01T08:17:01;149039.47;;;6.26;67.14
12358;BME280;6243;51.244;6.774;2023-03-01T08:19:26;149072.38;;;6.39;66.37
12358;BME280;6243;51.244;6.774;2023-03-01T08:21:52;149117.97;;;6.57;65.99
12358;BME280;6243;51.244;6.774;2023-03-01T08:24:17;149161.06;;;6.74;64.40
12358;BME280;6243;51.244;6.774;2023-03-01T08:26:44;149182.59;;;6.83;63.69
12358;BME280;6243;51.244;6.774;2023-03-01T08:29:10;149210.47;;;6.94;61.98
12358;BME280;6243;51.244;6.774;2023-03-01T08:31:38;149239.59;;;7.05;61.72
12358;BME280;6243;51.244;6.774;2023-03-01T08:34:06;149266.25;;;7.16;62.23
12358;BME280;6243;51.244;6.774;2023-03-01T08:36:34;149276.38;;;7.20;60.21
12358;BME280;6243;51.244;6.774;2023-03-01T08:39:00;149314.38;;;7.35;60.98
12358;BME280;6243;51.244;6.774;2023-03-01T08:41:26;149351.16;;;7.50;61.59
12358;BME280;6243;51.244;6.774;2023-03-01T08:43:54;149314.38;;;7.35;58.90
12358;BME280;6243;51.244;6.774;2023-03-01T08:46:19;149342.25;;;7.46;58.71
12358;BME280;6243;51.244;6.774;2023-03-01T08:48:45;149267.47;;;7.16;59.36
12358;BME280;6243;51.244;6.774;2023-03-01T08:51:12;149342.25;;;7.46;60.16
12358;BME280;6243;51.244;6.774;2023-03-01T08:53:38;149365.06;;;7.55;59.05
12358;BME280;6243;51.244;6.774;2023-03-01T08:56:04;149390.44;;;7.65;58.23
12358;BME280;6243;51.244;6.774;2023-03-01T08:58:30;149313.09;;;7.35;58.36
12358;BME280;6243;51.244;6.774;2023-03-01T09:00:57;149373.97;;;7.59;58.31
12358;BME280;6243;51.244;6.774;2023-03-01T09:03:22;149417.06;;;7.76;57.20
12358;BME280;6243;51.244;6.774;2023-03-01T09:05:48;149469.06;;;7.97;57.77
12358;BME280;6243;51.244;6.774;2023-03-01T09:08:13;149480.47;;;8.01;57.09
12358;BME280;6243;51.244;6.774;2023-03-01T09:10:39;149483.03;;;8.02;55.86
12358;BME280;6243;51.244;6.774;2023-03-01T09:13:04;149486.81;;;8.04;55.84
12358;BME280;6243;51.244;6.774;2023-03-01T09:15:30;149500.78;;;8.09;55.65
12358;BME280;6243;51.244;6.774;2023-03-01T09:17:57;149536.31;;;8.23;55.82
12358;BME280;6243;51.244;6.774;2023-03-01T09:20:22;149529.94;;;8.21;54.84
12358;BME280;6243;51.244;6.774;2023-03-01T09:22:48;149564.25;;;8.34;54.80
12358;BME280;6243;51.244;6.774;2023-03-01T09:25:13;149565.53;;;8.35;53.16
12358;BME280;6243;51.244;6.774;2023-03-01T09:27:39;149580.75;;;8.41;52.92
12358;BME280;6243;51.244;6.774;2023-03-01T09:30:05;149555.34;;;8.31;53.35
12358;BME280;6243;51.244;6.774;2023-03-01T09:32:31;149594.66;;;8.46;52.96
12358;BME280;6243;51.244;6.774;2023-03-01T09:34:58;149617.56;;;8.55;53.33
12358;BME280;6243;51.244;6.774;2023-03-01T09:37:23;149603.56;;;8.50;52.34
12358;BME280;6243;51.244;6.774;2023-03-01T09:39:49;149598.50;;;8.48;52.93
12358;BME280;6243;51.244;6.774;2023-03-01T09:42:14;149623.84;;;8.58;53.07
12358;BME280;6243;51.244;6.774;2023-03-01T09:44:43;149595.94;;;8.47;52.68
12358;BME280;6243;51.244;6.774;2023-03-01T09:47:17;149640.38;;;8.65;52.76
12358;BME280;6243;51.244;6.774;2023-03-01T09:49:43;149649.25;;;8.68;52.54
12358;BME280;6243;51.244;6.774;2023-03-01T09:52:21;149595.94;;;8.47;52.78
12358;BME280;6243;51.244;6.774;2023-03-01T09:54:53;149592.16;;;8.45;53.12
12358;BME280;6243;51.244;6.774;2023-03-01T09:57:28;149649.25;;;8.68;52.86
12358;BME280;6243;51.244;6.774;2023-03-01T10:00:13;149731.75;;;9.01;52.82
12358;BME280;6243;51.244;6.774;2023-03-01T10:02:44;149725.41;;;8.98;51.28
12358;BME280;6243;51.244;6.774;2023-03-01T10:05:20;149738.09;;;9.03;51.59
12358;BME280;6243;51.244;6.774;2023-03-01T10:07:59;149802.81;;;9.29;51.99
12358;BME280;6243;51.244;6.774;2023-03-01T10:10:28;149821.88;;;9.37;51.61
12358;BME280;6243;51.244;6.774;2023-03-01T10:12:54;149830.75;;;9.40;50.43
12358;BME280;6243;51.244;6.774;2023-03-01T10:15:28;149760.97;;;9.12;51.59
12358;BME280;6243;51.244;6.774;2023-03-01T10:17:57;149759.69;;;9.12;50.33
12358;BME280;6243;51.244;6.774;2023-03-01T10:20:26;149755.84;;;9.10;49.63
12358;BME280;6243;51.244;6.774;2023-03-01T10:22:56;149783.81;;;9.21;49.31
12358;BME280;6243;51.244;6.774;2023-03-01T10:25:36;149821.88;;;9.37;49.29
12358;BME280;6243;51.244;6.774;2023-03-01T10:28:10;149792.66;;;9.25;49.45
12358;BME280;6243;51.244;6.774;2023-03-01T10:30:40;149759.69;;;9.12;50.04
12358;BME280;6243;51.244;6.774;2023-03-01T10:33:15;149786.31;;;9.22;49.43
12358;BME280;6243;51.244;6.774;2023-03-01T10:35:42;149833.31;;;9.41;49.81
12358;BME280;6243;51.244;6.774;2023-03-01T10:38:11;149885.38;;;9.62;49.19
12358;BME280;6243;51.244;6.774;2023-03-01T10:40:50;149875.22;;;9.58;49.58
12358;BME280;6243;51.244;6.774;2023-03-01T10:43:16;149865.03;;;9.54;49.19
12358;BME280;6243;51.244;6.774;2023-03-01T10:45:42;149746.97;;;9.07;49.00
12358;BME280;6243;51.244;6.774;2023-03-01T10:48:13;149738.09;;;9.03;48.88
12358;BME280;6243;51.244;6.774;2023-03-01T10:50:39;149854.88;;;9.50;49.57
12358;BME280;6243;51.244;6.774;2023-03-01T10:53:05;149891.72;;;9.64;49.05
12358;BME280;6243;51.244;6.774;2023-03-01T10:55:42;149871.38;;;9.56;47.66
12358;BME280;6243;51.244;6.774;2023-03-01T10:58:17;149953.94;;;9.89;47.85
12358;BME280;6243;51.244;6.774;2023-03-01T11:00:48;149998.41;;;10.07;48.07
12358;BME280;6243;51.244;6.774;2023-03-01T11:03:16;150000.97;;;10.08;46.94
12358;BME280;6243;51.244;6.774;2023-03-01T11:05:58;150030.22;;;10.19;47.29
12358;BME280;6243;51.244;6.774;2023-03-01T11:08:45;150051.81;;;10.28;47.03
12358;BME280;6243;51.244;6.774;2023-03-01T11:11:25;150044.19;;;10.25;46.22
12358;BME280;6243;51.244;6.774;2023-03-01T11:13:59;150105.22;;;10.49;45.36
12358;BME280;6243;51.244;6.774;2023-03-01T11:16:37;150091.19;;;10.43;45.97
12358;BME280;6243;51.244;6.774;2023-03-01T11:19:27;150201.78;;;10.87;46.91
12358;BME280;6243;51.244;6.774;2023-03-01T11:21:57;150136.97;;;10.61;45.84
12358;BME280;6243;51.244;6.774;2023-03-01T11:24:29;150163.69;;;10.72;46.62
12358;BME280;6243;51.244;6.774;2023-03-01T11:27:01;150139.53;;;10.62;45.79
12358;BME280;6243;51.244;6.774;2023-03-01T11:29:32;150222.13;;;10.95;45.40
12358;BME280;6243;51.244;6.774;2023-03-01T11:32:01;150238.69;;;11.02;45.35
12358;BME280;6243;51.244;6.774;2023-03-01T11:34:35;150274.25;;;11.16;44.82
12358;BME280;6243;51.244;6.774;2023-03-01T11:37:10;150256.50;;;11.09;43.41
12358;BME280;6243;51.244;6.774;2023-03-01T11:39:41;150250.13;;;11.06;44.60
12358;BME280;6243;51.244;6.774;2023-03-01T11:42:13;150335.31;;;11.40;43.13
12358;BME280;6243;51.244;6.774;2023-03-01T11:44:41;150379.81;;;11.58;44.24
12358;BME280;6243;51.244;6.774;2023-03-01T11:47:18;150416.78;;;11.72;43.86
12358;BME280;6243;51.244;6.774;2023-03-01T11:49:59;150206.88;;;10.89;43.98
12358;BME280;6243;51.244;6.774;2023-03-01T11:52:34;150330.25;;;11.38;43.81
12358;BME280;6243;51.244;6.774;2023-03-01T11:55:16;150406.56;;;11.68;43.43
12358;BME280;6243;51.244;6.774;2023-03-01T11:57:59;150453.66;;;11.87;43.46
12358;BME280;6243;51.244;6.774;2023-03-01T12:00:46;150452.41;;;11.86;42.78
12358;BME280;6243;51.244;6.774;2023-03-01T12:03:28;150393.84;;;11.63;42.34
12358;BME280;6243;51.244;6.774;2023-03-01T12:06:03;150430.75;;;11.78;42.82
12358;BME280;6243;51.244;6.774;2023-03-01T12:08:35;150454.94;;;11.87;43.37
12358;BME280;6243;51.244;6.774;2023-03-01T12:11:12;150434.59;;;11.79;43.54
12358;BME280;6243;51.244;6.774;2023-03-01T12:16:45;150435.84;;;11.80;43.59
12358;BME280;6243;51.244;6.774;2023-03-01T12:19:33;150411.69;;;11.70;44.03
12358;BME280;6243;51.244;6.774;2023-03-01T12:22:21;150383.63;;;11.59;44.29
12358;BME280;6243;51.244;6.774;2023-03-01T12:25:06;150259.00;;;11.10;45.07
12358;BME280;6243;51.244;6.774;2023-03-01T12:27:54;150211.94;;;10.91;45.45
12358;BME280;6243;51.244;6.774;2023-03-01T12:30:36;150125.53;;;10.57;45.92
12358;BME280;6243;51.244;6.774;2023-03-01T12:33:12;149966.66;;;9.94;45.92
12358;BME280;6243;51.244;6.774;2023-03-01T12:35:53;149879.00;;;9.59;46.32
12358;BME280;6243;51.244;6.774;2023-03-01T12:38:32;149913.31;;;9.73;47.24
12358;BME280;6243;51.244;6.774;2023-03-01T12:44:31;149885.38;;;9.62;46.77
12358;BME280;6243;51.244;6.774;2023-03-01T12:47:09;149905.66;;;9.70;47.80
12358;BME280;6243;51.244;6.774;2023-03-01T12:49:40;149919.66;;;9.75;47.17
12358;BME280;6243;51.244;6.774;2023-03-01T12:52:11;149901.88;;;9.68;46.82
12358;BME280;6243;51.244;6.774;2023-03-01T12:54:39;149906.94;;;9.70;47.30
12358;BME280;6243;51.244;6.774;2023-03-01T12:57:09;149923.44;;;9.77;47.35
12358;BME280;6243;51.244;6.774;2023-03-01T12:59:41;149937.44;;;9.82;47.43
12358;BME280;6243;51.244;6.774;2023-03-01T13:02:16;149865.03;;;9.54;47.55
12358;BME280;6243;51.244;6.774;2023-03-01T13:04:57;149898.06;;;9.67;48.33
12358;BME280;6243;51.244;6.774;2023-03-01T13:07:30;149877.72;;;9.59;47.80
12358;BME280;6243;51.244;6.774;2023-03-01T13:10:14;149840.94;;;9.44;47.65
12358;BME280;6243;51.244;6.774;2023-03-01T13:12:45;149875.22;;;9.58;48.68
12358;BME280;6243;51.244;6.774;2023-03-01T13:15:41;149830.75;;;9.40;46.94
12358;BME280;6243;51.244;6.774;2023-03-01T13:18:29;149805.38;;;9.30;47.78
12358;BME280;6243;51.244;6.774;2023-03-01T13:20:56;149818.09;;;9.35;47.63
12358;BME280;6243;51.244;6.774;2023-03-01T13:23:31;149858.72;;;9.51;47.05